Time;durP1;ratioP1;P1;durP2;ratioP2;P2;SDS_P1;SDS_P2;PMS_P1;PMS_P2;Temp;Humidity;BMP_temperature;BMP_pressure;BME280_temperature;BME280_humidity;BME280_pressure;Samples;Min_cycle;Max_cycle;Signal;HPM_P1;HPM_P2
2023/06/03 00:01:03;;;;;;;1.48;1.25;;;11.80;81.20;;;;;;4997725;28;92591;-32
2023/06/03 00:03:31;;;;;;;2.35;1.73;;;11.80;84.20;;;;;;4997332;28;93593;-35
2023/06/03 00:05:58;;;;;;;2.90;1.23;;;11.70;88.30;;;;;;4997824;28;94098;-37
2023/06/03 00:08:23;;;;;;;1.00;0.88;;;11.60;90.10;;;;;;4997485;28;93108;-32
2023/06/03 00:10:49;;;;;;;3.03;1.02;;;11.60;91.70;;;;;;4997336;28;94950;-33
2023/06/03 00:13:15;;;;;;;2.25;0.85;;;11.50;91.50;;;;;;4996685;28;96155;-34
2023/06/03 00:15:40;;;;;;;0.63;0.63;;;11.50;92.10;;;;;;4996787;28;94703;-32
2023/06/03 00:18:07;;;;;;;1.52;1.25;;;11.40;94.30;;;;;;4997644;28;92986;-38
2023/06/03 00:20:36;;;;;;;1.58;1.48;;;11.40;94.30;;;;;;4996694;28;93152;-34
2023/06/03 00:23:05;;;;;;;2.05;1.50;;;11.30;96.00;;;;;;4996449;28;94915;-34
2023/06/03 00:25:34;;;;;;;0.63;0.63;;;11.30;95.50;;;;;;4996718;28;95062;-36
2023/06/03 00:28:00;;;;;;;3.15;1.23;;;11.30;95.00;;;;;;4996984;28;92213;-34
2023/06/03 00:30:26;;;;;;;2.55;1.15;;;11.30;94.80;;;;;;4996791;28;94299;-33
2023/06/03 00:32:52;;;;;;;2.05;0.90;;;11.30;96.10;;;;;;4995182;28;94955;-32
2023/06/03 00:35:17;;;;;;;1.85;0.90;;;11.20;99.40;;;;;;4996010;28;94397;-38
2023/06/03 00:37:43;;;;;;;1.25;0.77;;;11.10;99.90;;;;;;4997440;28;93059;-37
2023/06/03 00:40:09;;;;;;;1.70;1.25;;;11.00;99.90;;;;;;4996534;28;94390;-32
2023/06/03 00:42:35;;;;;;;0.90;0.90;;;11.00;99.90;;;;;;4996992;28;96513;-36
2023/06/03 00:45:01;;;;;;;2.60;1.00;;;10.90;99.90;;;;;;4996283;28;96653;-33
2023/06/03 00:47:27;;;;;;;4.03;1.42;;;10.80;99.90;;;;;;4997405;28;92480;-33
2023/06/03 00:49:53;;;;;;;0.80;0.80;;;10.80;99.90;;;;;;4997517;28;92318;-37
2023/06/03 00:52:21;;;;;;;2.05;1.08;;;10.70;99.90;;;;;;4996184;28;94736;-35
2023/06/03 00:54:49;;;;;;;;;;;10.70;99.90;;;;;;4996847;28;94257;-33
2023/06/03 00:57:15;;;;;;;1.17;0.80;;;10.60;99.90;;;;;;4998352;28;92125;-33
2023/06/03 00:59:42;;;;;;;0.98;0.80;;;10.60;99.90;;;;;;4996580;28;94528;-32
2023/06/03 01:02:07;;;;;;;0.85;0.82;;;10.60;99.90;;;;;;4995728;28;95494;-34
2023/06/03 01:04:34;;;;;;;1.33;1.05;;;10.50;99.90;;;;;;4996317;28;94637;-34
2023/06/03 01:07:27;;;;;;;1.13;1.02;;;10.50;99.90;;;;;;4978850;28;93570;-33
2023/06/03 01:10:21;;;;;;;2.03;1.15;;;10.40;99.90;;;;;;4996081;28;94726;-38
2023/06/03 01:13:10;;;;;;;0.90;0.85;;;10.40;99.90;;;;;;4996137;28;93979;-33
2023/06/03 01:15:40;;;;;;;1.08;0.70;;;10.40;99.90;;;;;;4996368;28;94869;-34
2023/06/03 01:18:06;;;;;;;2.42;1.23;;;10.30;99.90;;;;;;4978479;28;93122;-38
2023/06/03 01:20:34;;;;;;;6.68;1.13;;;10.30;99.90;;;;;;4996266;28;92333;-33
2023/06/03 01:23:28;;;;;;;1.35;0.70;;;10.30;99.90;;;;;;4995321;28;94343;-32
2023/06/03 01:25:57;;;;;;;1.42;1.27;;;10.20;99.90;;;;;;4997028;28;95230;-31
2023/06/03 01:28:23;;;;;;;1.38;0.90;;;10.20;99.90;;;;;;4996104;28;94613;-36
2023/06/03 01:30:50;;;;;;;0.85;0.85;;;10.20;99.90;;;;;;4995981;28;94305;-32
2023/06/03 01:33:18;;;;;;;0.88;0.80;;;10.10;99.90;;;;;;4995885;28;95576;-38
2023/06/03 01:35:45;;;;;;;2.90;0.87;;;10.10;99.90;;;;;;4996023;28;95361;-35
2023/06/03 01:38:11;;;;;;;1.55;1.38;;;10.10;99.90;;;;;;4996720;28;93308;-32
2023/06/03 01:40:38;;;;;;;3.85;1.13;;;10.00;99.90;;;;;;4996232;28;93020;-32
2023/06/03 01:43:04;;;;;;;2.33;1.33;;;10.00;99.90;;;;;;4995594;28;94987;-32
2023/06/03 01:45:30;;;;;;;2.10;0.88;;;9.90;99.90;;;;;;4996246;28;94586;-33
2023/06/03 01:47:56;;;;;;;1.23;0.90;;;9.90;99.90;;;;;;4996326;28;93547;-31
2023/06/03 01:50:22;;;;;;;0.75;0.75;;;9.90;99.90;;;;;;4997904;28;94404;-34
2023/06/03 01:52:48;;;;;;;1.00;0.98;;;9.90;99.90;;;;;;4999082;28;95455;-32
2023/06/03 01:55:14;;;;;;;1.85;1.10;;;9.80;99.90;;;;;;4998744;28;95362;-32
2023/06/03 01:57:42;;;;;;;2.83;1.45;;;9.80;99.90;;;;;;4982288;28;94629;-32
2023/06/03 02:00:09;;;;;;;1.33;1.10;;;9.80;99.90;;;;;;4999337;28;93370;-35
2023/06/03 02:02:35;;;;;;;0.95;0.95;;;9.80;99.90;;;;;;4999045;28;94682;-31
2023/06/03 02:05:01;;;;;;;2.70;0.90;;;9.70;99.90;;;;;;4999602;28;94319;-33
2023/06/03 02:07:29;;;;;;;1.75;1.20;;;9.70;99.90;;;;;;4998801;28;94407;-36
2023/06/03 02:09:59;;;;;;;1.63;1.40;;;9.60;99.90;;;;;;4998983;28;91394;-36
2023/06/03 02:12:25;;;;;;;4.10;1.33;;;9.60;99.90;;;;;;4999033;28;94330;-37
2023/06/03 02:14:53;;;;;;;1.63;1.30;;;9.50;99.90;;;;;;4999708;28;94438;-32
2023/06/03 02:17:24;;;;;;;;;;;9.50;99.90;;;;;;4999540;28;93545;-36
2023/06/03 02:19:50;;;;;;;1.77;1.13;;;9.40;99.90;;;;;;5000802;28;92999;-33
2023/06/03 02:22:17;;;;;;;1.80;1.70;;;9.40;99.90;;;;;;4998601;28;94663;-34
2023/06/03 02:24:43;;;;;;;1.20;1.10;;;9.40;99.90;;;;;;4999009;28;94055;-35
2023/06/03 02:27:09;;;;;;;1.48;1.38;;;9.30;99.90;;;;;;4999409;28;93835;-34
2023/06/03 02:29:35;;;;;;;4.95;2.00;;;9.30;99.90;;;;;;4998768;28;93354;-34
2023/06/03 02:32:00;;;;;;;1.38;0.85;;;9.30;99.90;;;;;;4998764;28;95125;-32
2023/06/03 02:34:26;;;;;;;2.40;1.20;;;9.20;99.90;;;;;;4998839;28;94192;-31
2023/06/03 02:36:52;;;;;;;2.47;2.05;;;9.20;99.90;;;;;;4999438;28;93411;-32
2023/06/03 02:39:18;;;;;;;1.95;1.23;;;9.20;99.90;;;;;;4998855;28;94254;-33
2023/06/03 02:41:46;;;;;;;4.28;1.95;;;9.10;99.90;;;;;;4997755;28;94839;-33
2023/06/03 02:44:12;;;;;;;1.65;1.48;;;9.20;99.90;;;;;;4997543;28;94945;-33
2023/06/03 02:46:38;;;;;;;3.72;1.73;;;9.10;99.90;;;;;;4999214;28;93474;-34
2023/06/03 02:49:06;;;;;;;5.65;1.48;;;9.10;99.90;;;;;;4999094;28;92688;-35
2023/06/03 02:51:31;;;;;;;2.57;1.90;;;9.10;99.90;;;;;;4997963;28;95012;-32
2023/06/03 02:53:57;;;;;;;4.90;1.40;;;9.00;99.90;;;;;;4998428;28;94754;-34
2023/06/03 02:56:23;;;;;;;1.98;1.02;;;9.00;99.90;;;;;;4998117;28;93933;-37
2023/06/03 02:58:50;;;;;;;1.35;1.25;;;9.00;99.90;;;;;;4998713;28;91392;-34
2023/06/03 03:01:18;;;;;;;2.15;1.65;;;9.00;99.90;;;;;;4997179;28;94372;-34
2023/06/03 03:03:43;;;;;;;2.35;2.15;;;9.00;99.90;;;;;;4998490;28;94726;-34
2023/06/03 03:06:15;;;;;;;1.38;1.27;;;9.00;99.90;;;;;;4997062;28;94288;-35
2023/06/03 03:08:41;;;;;;;2.83;1.42;;;9.00;99.90;;;;;;4998192;28;93735;-33
2023/06/03 03:11:09;;;;;;;1.83;1.42;;;9.00;99.90;;;;;;4997476;28;94645;-36
2023/06/03 03:13:35;;;;;;;1.55;1.45;;;9.00;99.90;;;;;;4998967;28;93943;-32
2023/06/03 03:16:01;;;;;;;2.17;1.52;;;9.00;99.90;;;;;;4998141;28;94143;-33
2023/06/03 03:18:26;;;;;;;4.80;1.85;;;9.00;99.90;;;;;;4997453;28;93409;-34
2023/06/03 03:20:52;;;;;;;2.47;1.85;;;9.00;99.90;;;;;;4997778;28;96509;-34
2023/06/03 03:23:18;;;;;;;1.75;1.50;;;9.00;99.90;;;;;;4997530;28;94479;-33
2023/06/03 03:25:45;;;;;;;2.90;1.92;;;8.90;99.90;;;;;;4998547;28;92875;-36
2023/06/03 03:28:11;;;;;;;1.60;1.50;;;8.90;99.90;;;;;;4997723;28;93581;-34
2023/06/03 03:30:37;;;;;;;1.48;1.10;;;8.90;99.90;;;;;;4997205;28;95445;-38
2023/06/03 03:33:04;;;;;;;4.80;1.77;;;8.90;99.90;;;;;;4997244;28;94961;-35
2023/06/03 03:35:30;;;;;;;2.35;1.63;;;8.90;99.90;;;;;;4997698;28;93106;-32
2023/06/03 03:38:04;;;;;;;1.95;1.85;;;8.90;99.90;;;;;;4998405;28;93912;-35
2023/06/03 03:40:31;;;;;;;1.92;1.65;;;8.90;99.90;;;;;;4995849;28;94108;-35
2023/06/03 03:42:58;;;;;;;2.17;1.90;;;8.90;99.90;;;;;;4997065;28;94875;-32
2023/06/03 03:45:30;;;;;;;4.18;1.75;;;8.90;99.90;;;;;;4997612;28;94440;-37
2023/06/03 03:48:07;;;;;;;2.33;1.60;;;8.90;99.90;;;;;;4998346;28;93730;-33
2023/06/03 03:50:50;;;;;;;2.75;1.55;;;8.90;99.90;;;;;;4998004;28;95202;-34
2023/06/03 03:53:21;;;;;;;3.65;2.05;;;8.90;99.90;;;;;;4997006;28;94596;-33
2023/06/03 03:55:52;;;;;;;2.10;1.88;;;8.90;99.90;;;;;;4997276;28;93990;-34
2023/06/03 03:58:35;;;;;;;3.60;1.83;;;8.90;99.90;;;;;;4997818;28;92903;-34
2023/06/03 04:01:09;;;;;;;1.75;1.65;;;8.90;99.90;;;;;;4997126;28;94727;-35
2023/06/03 04:03:40;;;;;;;2.92;1.80;;;8.90;99.90;;;;;;4997880;28;94841;-34
2023/06/03 04:06:32;;;;;;;3.72;2.00;;;8.90;99.90;;;;;;4997447;28;92155;-33
2023/06/03 04:08:58;;;;;;;1.90;1.52;;;8.90;99.90;;;;;;4986272;28;92608;-33
2023/06/03 04:11:27;;;;;;;3.22;1.90;;;8.90;99.90;;;;;;4997040;28;94726;-37
2023/06/03 04:13:58;;;;;;;3.90;2.15;;;9.00;99.90;;;;;;4997749;28;94451;-36
2023/06/03 04:17:02;;;;;;;1.70;1.33;;;9.00;99.90;;;;;;4994719;28;94433;-38
2023/06/03 04:19:36;;;;;;;2.33;1.35;;;9.10;99.90;;;;;;4977146;28;94801;-35
2023/06/03 04:22:06;;;;;;;2.05;1.65;;;9.10;99.90;;;;;;4976201;28;95717;-33
2023/06/03 04:24:36;;;;;;;1.50;1.40;;;9.20;99.90;;;;;;5039775;22;95151;-38
2023/06/03 04:27:03;;;;;;;2.83;2.50;;;9.20;99.90;;;;;;4997639;28;93168;-33
2023/06/03 04:29:30;;;;;;;2.00;1.80;;;9.30;99.90;;;;;;4997169;28;95090;-33
2023/06/03 04:31:55;;;;;;;3.28;2.15;;;9.40;99.90;;;;;;4996638;28;94675;-36
2023/06/03 04:34:21;;;;;;;3.95;2.25;;;9.50;99.90;;;;;;4996658;28;93751;-36
2023/06/03 04:36:47;;;;;;;2.33;1.70;;;9.70;99.90;;;;;;4998350;28;94299;-36
2023/06/03 04:39:12;;;;;;;2.22;2.03;;;9.80;99.90;;;;;;4997259;28;92547;-32
2023/06/03 04:41:38;;;;;;;1.67;1.58;;;10.00;99.90;;;;;;4996996;28;94801;-36
2023/06/03 04:44:04;;;;;;;2.55;1.70;;;10.10;99.90;;;;;;4996169;28;95591;-36
2023/06/03 04:46:30;;;;;;;5.75;2.30;;;10.20;99.90;;;;;;4996259;28;93973;-33
2023/06/03 04:48:57;;;;;;;7.75;2.30;;;10.50;99.90;;;;;;4996982;28;92147;-32
2023/06/03 04:51:27;;;;;;;3.00;2.40;;;10.60;99.90;;;;;;4996235;28;95745;-36
2023/06/03 04:53:55;;;;;;;2.42;1.95;;;10.70;99.90;;;;;;4995910;28;94406;-36
2023/06/03 04:56:21;;;;;;;2.22;1.58;;;10.90;99.90;;;;;;4996343;28;94509;-31
2023/06/03 04:58:47;;;;;;;1.63;1.40;;;10.90;99.90;;;;;;4996823;28;92278;-36
2023/06/03 05:01:12;;;;;;;3.28;2.83;;;11.10;99.90;;;;;;4996103;28;95997;-32
2023/06/03 05:03:44;;;;;;;1.65;1.45;;;11.30;99.90;;;;;;4996984;28;95141;-34
2023/06/03 05:06:10;;;;;;;1.73;1.60;;;11.50;99.90;;;;;;4978803;28;93538;-34
2023/06/03 05:08:38;;;;;;;4.95;1.92;;;11.70;99.90;;;;;;4996712;28;94225;-37
2023/06/03 05:11:04;;;;;;;2.72;1.77;;;11.90;99.90;;;;;;4996184;28;95422;-31
2023/06/03 05:13:30;;;;;;;1.50;1.40;;;12.00;99.90;;;;;;4995967;28;95758;-32
2023/06/03 05:15:55;;;;;;;2.60;2.28;;;12.20;99.90;;;;;;4997624;28;93524;-32
2023/06/03 05:18:21;;;;;;;5.50;2.28;;;12.30;99.90;;;;;;4995732;28;92060;-31
2023/06/03 05:20:47;;;;;;;7.07;2.47;;;12.30;99.90;;;;;;4996254;28;94424;-35
2023/06/03 05:23:12;;;;;;;2.80;1.95;;;12.50;99.90;;;;;;4995684;28;96194;-33
2023/06/03 05:25:38;;;;;;;5.00;2.40;;;12.60;99.90;;;;;;4998438;28;94484;-31
2023/06/03 05:28:05;;;;;;;3.05;2.25;;;12.80;99.90;;;;;;5000417;28;92223;-35
2023/06/03 05:30:31;;;;;;;1.90;1.80;;;12.90;99.90;;;;;;4999444;28;94746;-34
2023/06/03 05:32:57;;;;;;;1.77;1.65;;;13.20;99.90;;;;;;4999347;28;93307;-37
2023/06/03 05:35:22;;;;;;;1.80;1.70;;;13.20;99.90;;;;;;4999443;28;93133;-33
2023/06/03 05:37:48;;;;;;;2.00;1.90;;;13.40;99.90;;;;;;4999692;28;94967;-33
2023/06/03 05:40:13;;;;;;;2.30;1.80;;;13.50;99.90;;;;;;4998555;28;94813;-32
2023/06/03 05:42:39;;;;;;;2.90;1.73;;;13.60;99.90;;;;;;4983333;28;94504;-34
2023/06/03 05:45:06;;;;;;;2.75;2.10;;;13.70;99.90;;;;;;4988261;28;94006;-37
2023/06/03 05:47:31;;;;;;;4.18;2.03;;;13.90;99.90;;;;;;4979246;28;94404;-32
2023/06/03 05:49:57;;;;;;;7.20;3.00;;;14.00;99.90;;;;;;4990570;28;94751;-31
2023/06/03 05:52:22;;;;;;;2.55;2.35;;;14.10;96.60;;;;;;4999046;28;92834;-37
2023/06/03 05:54:48;;;;;;;3.08;2.25;;;14.30;94.40;;;;;;4998327;28;92221;-35
2023/06/03 05:57:14;;;;;;;1.80;1.33;;;14.40;93.30;;;;;;4978389;28;94377;-33
2023/06/03 05:59:39;;;;;;;8.45;2.42;;;14.60;94.00;;;;;;4985900;28;95776;-34
2023/06/03 06:02:05;;;;;;;1.95;1.85;;;14.80;89.00;;;;;;4997024;28;95981;-31
2023/06/03 06:04:31;;;;;;;2.88;1.80;;;14.90;84.00;;;;;;4997286;28;93916;-32
2023/06/03 06:06:57;;;;;;;2.30;1.65;;;15.00;77.00;;;;;;4996944;28;92602;-32
2023/06/03 06:09:22;;;;;;;5.47;2.80;;;15.30;78.60;;;;;;4996875;28;94733;-34
2023/06/03 06:11:48;;;;;;;1.77;1.67;;;15.30;73.90;;;;;;4997730;28;94479;-36
2023/06/03 06:14:13;;;;;;;1.23;1.08;;;15.40;75.40;;;;;;4997708;28;94075;-34
2023/06/03 06:16:39;;;;;;;1.38;1.27;;;15.30;72.00;;;;;;4997145;28;92610;-34
2023/06/03 06:19:05;;;;;;;2.33;1.88;;;15.20;72.70;;;;;;4996816;28;95014;-35
2023/06/03 06:21:30;;;;;;;1.55;1.42;;;15.30;73.10;;;;;;4997139;28;94013;-30
2023/06/03 06:23:56;;;;;;;2.42;1.88;;;15.50;73.00;;;;;;4995481;28;94169;-33
2023/06/03 06:26:22;;;;;;;2.13;1.83;;;15.80;73.20;;;;;;4996882;28;94263;-35
2023/06/03 06:28:47;;;;;;;6.18;1.85;;;15.90;73.00;;;;;;4995609;28;94384;-34
2023/06/03 06:31:15;;;;;;;3.88;1.48;;;16.10;71.50;;;;;;4995881;28;95007;-35
2023/06/03 06:33:47;;;;;;;2.57;1.00;;;16.00;68.70;;;;;;4997057;28;93026;-32
2023/06/03 06:36:29;;;;;;;3.78;1.45;;;16.10;67.40;;;;;;4996199;28;93046;-33
2023/06/03 06:38:55;;;;;;;1.85;1.40;;;16.20;66.80;;;;;;4976255;28;94339;-34
2023/06/03 06:41:21;;;;;;;1.88;1.60;;;16.20;66.80;;;;;;4977677;28;93627;-31
2023/06/03 06:43:47;;;;;;;1.25;1.10;;;16.10;65.70;;;;;;4978638;28;93069;-34
2023/06/03 06:46:12;;;;;;;2.97;1.23;;;16.40;67.80;;;;;;4978086;28;92480;-31
2023/06/03 06:48:39;;;;;;;1.38;1.10;;;16.60;65.40;;;;;;4974577;28;95454;-32
2023/06/03 06:51:06;;;;;;;2.25;1.17;;;16.80;65.10;;;;;;4976109;28;95210;-35
2023/06/03 06:53:35;;;;;;;1.83;1.25;;;16.90;64.30;;;;;;4976331;28;94082;-33
2023/06/03 06:56:06;;;;;;;1.20;1.00;;;17.00;64.00;;;;;;4975571;28;93859;-36
2023/06/03 06:58:37;;;;;;;0.88;0.88;;;16.90;61.90;;;;;;4975741;28;94842;-35
2023/06/03 07:01:07;;;;;;;1.60;1.13;;;17.10;63.70;;;;;;4975364;28;94947;-35
2023/06/03 07:03:33;;;;;;;2.08;1.15;;;17.50;64.60;;;;;;4977520;28;93499;-32
2023/06/03 07:05:59;;;;;;;0.80;0.80;;;17.80;62.30;;;;;;4977955;28;92261;-32
2023/06/03 07:08:25;;;;;;;2.65;1.15;;;17.80;60.80;;;;;;4977754;28;94711;-35
2023/06/03 07:10:56;;;;;;;1.80;1.17;;;17.90;60.00;;;;;;4977029;28;94363;-36
2023/06/03 07:13:21;;;;;;;1.60;1.15;;;17.90;59.10;;;;;;4977473;28;93102;-36
2023/06/03 07:15:47;;;;;;;1.88;1.35;;;17.90;59.80;;;;;;4978087;28;93402;-36
2023/06/03 07:18:13;;;;;;;0.70;0.70;;;18.30;59.80;;;;;;4977857;28;94933;-32
2023/06/03 07:20:41;;;;;;;2.70;1.33;;;18.10;57.90;;;;;;4977565;28;94498;-33
2023/06/03 07:23:12;;;;;;;2.22;1.58;;;18.30;59.50;;;;;;4977425;28;93738;-34
2023/06/03 07:25:49;;;;;;;2.35;1.52;;;18.60;59.80;;;;;;4977612;28;92815;-31
2023/06/03 07:28:35;;;;;;;2.22;1.27;;;18.90;58.00;;;;;;4977804;28;95752;-30
2023/06/03 07:31:04;;;;;;;1.23;0.95;;;18.80;59.00;;;;;;4978151;28;92625;-33
2023/06/03 07:33:37;;;;;;;2.55;1.10;;;19.00;59.00;;;;;;4978355;28;93465;-33
2023/06/03 07:36:03;;;;;;;1.13;0.90;;;19.00;56.90;;;;;;4977445;28;92091;-34
2023/06/03 07:38:38;;;;;;;2.95;1.73;;;19.00;57.30;;;;;;4976899;28;95948;-31
2023/06/03 07:41:08;;;;;;;3.35;1.27;;;19.10;57.30;;;;;;4977538;28;95468;-34
2023/06/03 07:43:36;;;;;;;2.15;1.10;;;19.00;56.00;;;;;;4977888;28;93187;-31
2023/06/03 07:46:09;;;;;;;0.97;0.97;;;18.80;56.60;;;;;;4977494;28;92079;-33
2023/06/03 07:48:38;;;;;;;1.92;0.98;;;18.90;57.80;;;;;;4976626;28;94410;-31
2023/06/03 07:51:08;;;;;;;0.80;0.80;;;18.70;57.70;;;;;;4976974;28;94744;-31
2023/06/03 07:53:36;;;;;;;1.75;1.20;;;18.50;58.00;;;;;;4977689;28;94346;-31
2023/06/03 07:56:09;;;;;;;1.35;1.10;;;18.20;56.90;;;;;;4977487;28;91594;-34
2023/06/03 07:58:36;;;;;;;3.42;1.63;;;17.90;57.10;;;;;;4977312;28;95691;-32
2023/06/03 08:01:03;;;;;;;5.35;1.02;;;17.80;57.40;;;;;;4977112;28;94445;-32
2023/06/03 08:03:30;;;;;;;3.60;1.17;;;17.70;58.20;;;;;;4976947;28;94278;-33
2023/06/03 08:05:56;;;;;;;1.48;1.25;;;17.40;58.80;;;;;;4977668;28;92270;-34
2023/06/03 08:08:30;;;;;;;1.35;1.05;;;17.50;59.40;;;;;;4977308;28;94820;-31
2023/06/03 08:10:56;;;;;;;3.15;1.15;;;17.70;60.60;;;;;;4977022;28;94545;-32
2023/06/03 08:13:21;;;;;;;1.75;1.23;;;18.00;57.30;;;;;;4977130;28;94267;-34
2023/06/03 08:15:48;;;;;;;2.25;1.35;;;18.20;56.40;;;;;;4976331;28;92906;-35
2023/06/03 08:18:40;;;;;;;4.50;1.05;;;18.50;57.50;;;;;;4977375;28;94416;-34
2023/06/03 08:21:06;;;;;;;0.95;0.85;;;18.80;57.40;;;;;;4976608;28;92575;-36
2023/06/03 08:23:33;;;;;;;1.63;1.00;;;18.80;54.30;;;;;;4977016;28;94512;-31
2023/06/03 08:26:00;;;;;;;1.58;0.75;;;19.00;55.50;;;;;;4977154;28;94235;-33
2023/06/03 08:28:26;;;;;;;1.20;0.90;;;19.20;54.50;;;;;;4958205;28;95580;-36
2023/06/03 08:30:52;;;;;;;2.67;1.00;;;19.10;53.90;;;;;;4976599;28;94703;-35
2023/06/03 08:33:18;;;;;;;1.58;1.45;;;19.30;55.40;;;;;;4976544;28;93968;-31
2023/06/03 08:35:44;;;;;;;2.83;1.13;;;19.50;56.60;;;;;;4976535;28;94284;-37
2023/06/03 08:38:10;;;;;;;1.10;0.75;;;19.60;54.40;;;;;;4976991;28;94837;-33
2023/06/03 08:40:45;;;;;;;1.27;1.17;;;19.30;53.80;;;;;;4976447;28;94343;-32
2023/06/03 08:43:11;;;;;;;1.90;1.20;;;19.50;54.50;;;;;;4977956;28;92937;-32
2023/06/03 08:45:57;;;;;;;1.30;1.15;;;19.60;52.00;;;;;;4981048;28;92610;-35
2023/06/03 08:48:41;;;;;;;1.30;0.73;;;19.50;52.90;;;;;;4975844;28;94269;-35
2023/06/03 08:51:10;;;;;;;2.45;0.90;;;19.80;53.50;;;;;;4976375;28;94556;-36
2023/06/03 08:53:46;;;;;;;0.60;0.60;;;19.90;52.80;;;;;;4977297;28;93543;-32
2023/06/03 08:56:15;;;;;;;1.83;1.27;;;20.00;51.60;;;;;;4984108;28;94943;-33
2023/06/03 08:58:43;;;;;;;1.45;1.25;;;19.60;52.10;;;;;;4996168;28;94400;-32
2023/06/03 09:01:11;;;;;;;1.20;1.10;;;19.80;53.40;;;;;;4998636;28;95067;-37
2023/06/03 09:03:38;;;;;;;1.75;1.25;;;19.60;52.40;;;;;;4985518;28;93263;-32
2023/06/03 09:06:05;;;;;;;3.23;1.10;;;19.80;53.90;;;;;;4962513;28;93780;-34
2023/06/03 09:08:31;;;;;;;2.45;1.02;;;19.90;53.20;;;;;;4979432;28;95806;-34
2023/06/03 09:10:58;;;;;;;1.50;1.17;;;20.10;53.90;;;;;;4979959;28;95193;-37
2023/06/03 09:13:28;;;;;;;1.70;1.33;;;20.20;51.80;;;;;;4980632;28;93890;-33
2023/06/03 09:15:55;;;;;;;1.10;1.00;;;20.30;54.60;;;;;;4979967;28;92122;-34
2023/06/03 09:18:21;;;;;;;3.20;1.00;;;20.50;53.90;;;;;;4961231;28;96049;-36
2023/06/03 09:20:46;;;;;;;1.75;1.35;;;20.50;52.00;;;;;;4979929;28;96104;-32
2023/06/03 09:23:15;;;;;;;4.05;1.23;;;20.40;53.10;;;;;;4979547;28;93217;-34
2023/06/03 09:25:42;;;;;;;1.60;1.50;;;20.60;52.70;;;;;;4979991;28;94076;-33
2023/06/03 09:28:08;;;;;;;2.80;1.50;;;20.50;51.00;;;;;;4979225;28;95921;-34
2023/06/03 09:30:35;;;;;;;1.27;1.15;;;20.40;52.10;;;;;;4979563;28;95073;-33
2023/06/03 09:33:01;;;;;;;1.33;1.23;;;20.30;51.60;;;;;;4980203;28;93910;-33
2023/06/03 09:35:27;;;;;;;1.45;1.27;;;20.30;52.30;;;;;;4979298;28;92542;-35
2023/06/03 09:38:00;;;;;;;0.65;0.63;;;19.90;52.50;;;;;;4979756;28;94844;-34
2023/06/03 09:40:30;;;;;;;2.05;1.25;;;20.10;52.20;;;;;;4978874;28;94494;-34
2023/06/03 09:42:56;;;;;;;1.73;1.10;;;20.50;54.60;;;;;;4979098;28;94397;-32
2023/06/03 09:45:26;;;;;;;1.17;1.00;;;20.20;52.90;;;;;;4979023;28;94716;-32
2023/06/03 09:47:53;;;;;;;1.55;1.25;;;20.00;53.00;;;;;;4979265;28;95052;-31
2023/06/03 09:50:21;;;;;;;4.65;1.73;;;20.10;54.10;;;;;;4976960;28;94062;-34
2023/06/03 09:52:47;;;;;;;4.20;1.23;;;19.80;53.60;;;;;;4977934;28;93752;-36
2023/06/03 09:55:14;;;;;;;1.23;1.10;;;19.70;53.50;;;;;;4977498;28;93689;-34
2023/06/03 09:57:41;;;;;;;1.50;1.40;;;19.70;52.00;;;;;;4977584;28;94652;-34
2023/06/03 10:00:11;;;;;;;1.40;1.20;;;20.00;52.60;;;;;;4976515;28;94899;-33
2023/06/03 10:02:45;;;;;;;1.27;1.17;;;20.20;55.20;;;;;;4977751;28;94488;-30
2023/06/03 10:05:27;;;;;;;1.55;1.45;;;20.50;52.70;;;;;;4989974;28;93851;-37
2023/06/03 10:07:53;;;;;;;2.28;0.93;;;20.30;51.00;;;;;;4996305;28;95054;-34
2023/06/03 10:10:19;;;;;;;1.10;1.00;;;20.40;53.70;;;;;;4997015;28;94646;-32
2023/06/03 10:12:45;;;;;;;1.20;1.10;;;20.40;52.70;;;;;;4997579;28;92824;-32
2023/06/03 10:15:11;;;;;;;4.07;1.52;;;20.50;52.40;;;;;;4996430;28;93711;-33
2023/06/03 10:17:45;;;;;;;1.38;1.23;;;20.70;53.30;;;;;;4996751;28;94757;-33
2023/06/03 10:20:11;;;;;;;1.30;1.20;;;20.60;51.00;;;;;;4996718;28;94957;-34
2023/06/03 10:22:42;;;;;;;1.33;0.85;;;20.60;51.50;;;;;;4997422;28;93279;-34
2023/06/03 10:25:08;;;;;;;3.72;1.63;;;20.50;51.70;;;;;;4997126;28;92338;-34
2023/06/03 10:27:35;;;;;;;1.60;1.50;;;20.50;50.90;;;;;;4996812;28;95250;-34
2023/06/03 10:30:01;;;;;;;8.05;1.40;;;20.50;49.60;;;;;;4996372;28;94808;-32
2023/06/03 10:32:28;;;;;;;3.30;1.15;;;20.50;51.80;;;;;;4996644;28;96020;-37
2023/06/03 10:34:56;;;;;;;1.30;1.20;;;20.40;50.70;;;;;;4997227;28;94596;-31
2023/06/03 10:37:24;;;;;;;2.65;1.80;;;20.30;50.70;;;;;;4996683;28;95339;-32
2023/06/03 10:39:50;;;;;;;1.80;1.25;;;20.40;52.20;;;;;;4996214;28;93453;-33
2023/06/03 10:42:16;;;;;;;1.35;1.10;;;20.50;53.30;;;;;;4997201;28;92968;-33
2023/06/03 10:44:42;;;;;;;1.88;0.88;;;20.40;51.40;;;;;;4996542;28;92952;-34
2023/06/03 10:47:33;;;;;;;2.13;1.33;;;20.40;51.00;;;;;;4996249;28;94934;-32
2023/06/03 10:50:16;;;;;;;2.22;1.02;;;20.40;49.70;;;;;;4996070;28;94665;-32
2023/06/03 10:53:14;;;;;;;3.17;1.27;;;20.30;51.20;;;;;;4996552;28;94213;-34
2023/06/03 10:56:00;;;;;;;5.07;1.52;;;20.50;51.60;;;;;;4996966;28;94635;-32
2023/06/03 10:58:26;;;;;;;1.17;1.02;;;20.70;51.30;;;;;;4995903;28;94967;-31
2023/06/03 11:01:00;;;;;;;1.58;1.08;;;20.60;52.30;;;;;;4995734;28;95169;-33
2023/06/03 11:03:31;;;;;;;2.75;0.70;;;20.60;52.00;;;;;;4978114;28;94784;-32
2023/06/03 11:06:18;;;;;;;2.10;1.00;;;20.80;51.90;;;;;;4996166;28;93253;-35
2023/06/03 11:09:00;;;;;;;3.33;0.88;;;20.70;49.80;;;;;;4996537;28;94367;-33
2023/06/03 11:11:41;;;;;;;2.58;1.15;;;20.70;52.20;;;;;;4995356;28;94369;-34
2023/06/03 11:14:25;;;;;;;1.15;0.98;;;20.70;52.30;;;;;;4995495;28;94123;-35
2023/06/03 11:16:59;;;;;;;1.70;1.13;;;20.80;51.50;;;;;;4996572;28;93484;-36
2023/06/03 11:19:35;;;;;;;3.25;1.52;;;20.70;53.40;;;;;;4995175;28;95306;-34
2023/06/03 11:22:04;;;;;;;1.90;0.90;;;20.80;51.70;;;;;;4995348;28;93421;-35
2023/06/03 11:24:39;;;;;;;1.50;0.95;;;20.80;51.10;;;;;;4995639;28;94663;-33
2023/06/03 11:27:11;;;;;;;1.77;1.00;;;20.60;51.40;;;;;;4995804;28;92673;-32
2023/06/03 11:29:43;;;;;;;2.97;1.35;;;20.70;51.40;;;;;;4996603;28;94076;-34
2023/06/03 11:32:16;;;;;;;1.23;1.10;;;20.90;51.60;;;;;;4995126;28;94661;-31
2023/06/03 11:34:43;;;;;;;1.10;0.98;;;20.70;50.30;;;;;;4996054;28;94478;-36
2023/06/03 11:37:11;;;;;;;2.30;1.27;;;20.90;52.60;;;;;;4995226;28;94187;-36
2023/06/03 11:40:04;;;;;;;4.57;1.33;;;20.70;50.80;;;;;;4995701;28;94569;-32
2023/06/03 11:42:30;;;;;;;3.28;1.00;;;20.80;51.50;;;;;;4995061;28;94427;-35
2023/06/03 11:45:18;;;;;;;2.00;1.23;;;21.00;50.50;;;;;;4996548;28;93686;-33
2023/06/03 11:47:54;;;;;;;0.90;0.90;;;21.00;51.90;;;;;;4994874;28;93159;-34
2023/06/03 11:50:22;;;;;;;3.45;0.93;;;20.80;51.20;;;;;;4994277;28;95943;-34
2023/06/03 11:52:48;;;;;;;3.97;1.67;;;20.80;53.20;;;;;;4992304;28;95701;-33
2023/06/03 11:55:31;;;;;;;1.67;1.58;;;20.70;51.10;;;;;;4995147;28;92909;-36
2023/06/03 11:58:10;;;;;;;1.35;1.10;;;20.70;51.00;;;;;;4996153;28;94349;-32
2023/06/03 12:00:37;;;;;;;1.52;1.33;;;20.70;51.50;;;;;;4994493;28;96600;-31
2023/06/03 12:03:03;;;;;;;3.17;1.25;;;20.60;51.80;;;;;;4994903;28;94609;-36
2023/06/03 12:05:29;;;;;;;5.15;1.92;;;20.80;53.00;;;;;;4996043;28;93109;-34
2023/06/03 12:07:57;;;;;;;1.98;1.30;;;20.90;51.40;;;;;;4995586;28;94239;-32
2023/06/03 12:10:23;;;;;;;2.92;1.42;;;21.00;50.20;;;;;;4994186;28;94495;-32
2023/06/03 12:12:53;;;;;;;3.63;0.90;;;21.10;49.40;;;;;;4995135;28;95124;-30
2023/06/03 12:15:19;;;;;;;1.70;1.30;;;21.20;50.40;;;;;;4995142;28;95348;-36
2023/06/03 12:17:45;;;;;;;0.80;0.80;;;21.00;49.50;;;;;;4995116;28;93166;-32
2023/06/03 12:20:23;;;;;;;2.08;1.52;;;21.10;50.60;;;;;;4993872;28;95376;-30
2023/06/03 12:22:49;;;;;;;;;;;21.20;49.10;;;;;;4994929;28;93705;-32
2023/06/03 12:25:20;;;;;;;1.58;1.23;;;20.90;49.50;;;;;;4997016;28;92593;-34
2023/06/03 12:27:46;;;;;;;4.38;1.17;;;21.10;47.90;;;;;;4995047;28;92927;-34
2023/06/03 12:30:12;;;;;;;2.67;1.52;;;21.20;50.30;;;;;;4994630;28;94360;-32
2023/06/03 12:32:57;;;;;;;9.25;1.20;;;21.20;49.80;;;;;;4994475;28;94715;-33
2023/06/03 12:35:28;;;;;;;1.92;1.40;;;21.10;49.50;;;;;;4995100;28;93068;-33
2023/06/03 12:38:04;;;;;;;1.33;1.23;;;21.30;51.40;;;;;;4995965;28;94561;-35
2023/06/03 12:40:30;;;;;;;1.95;1.23;;;21.30;50.50;;;;;;4994204;28;95904;-31
2023/06/03 12:42:57;;;;;;;1.88;1.40;;;21.00;50.10;;;;;;4993906;28;95345;-33
2023/06/03 12:45:27;;;;;;;2.25;1.45;;;21.00;51.50;;;;;;4976401;28;93710;-34
2023/06/03 12:47:54;;;;;;;1.48;1.30;;;20.90;49.30;;;;;;4994890;28;93971;-36
2023/06/03 12:50:20;;;;;;;1.30;1.10;;;21.20;49.20;;;;;;4994610;28;94516;-36
2023/06/03 12:52:47;;;;;;;3.03;1.20;;;21.00;49.70;;;;;;4994958;28;94329;-36
2023/06/03 12:55:16;;;;;;;2.78;1.75;;;21.20;49.60;;;;;;4994323;28;92179;-34
2023/06/03 12:57:44;;;;;;;1.33;1.23;;;21.30;50.10;;;;;;4994535;28;92304;-35
2023/06/03 13:00:15;;;;;;;1.23;1.10;;;21.20;50.40;;;;;;4994374;28;94716;-30